sensor_id;sensor_type;location;lat;lon;timestamp;pressure;altitude;pressure_sealevel;temperature;humidity
50394;BME280;36308;46.312;25.288;2023-12-14T00:00:25;94582.78;;;5.36;78.25
50394;BME280;36308;46.312;25.288;2023-12-14T00:02:50;94575.06;;;5.40;78.64
50394;BME280;36308;46.312;25.288;2023-12-14T00:05:16;94572.41;;;5.40;78.68
50394;BME280;36308;46.312;25.288;2023-12-14T00:07:41;94583.06;;;5.40;78.85
50394;BME280;36308;46.312;25.288;2023-12-14T00:10:07;94594.25;;;5.42;78.59
50394;BME280;36308;46.312;25.288;2023-12-14T00:12:33;94583.84;;;5.40;78.87
50394;BME280;36308;46.312;25.288;2023-12-14T00:14:58;94586.28;;;5.42;78.86
50394;BME280;36308;46.312;25.288;2023-12-14T00:17:24;94591.59;;;5.42;78.83
50394;BME280;36308;46.312;25.288;2023-12-14T00:19:49;94588.38;;;5.40;78.49
50394;BME280;36308;46.312;25.288;2023-12-14T00:22:15;94587.31;;;5.36;78.60
50394;BME280;36308;46.312;25.288;2023-12-14T00:24:40;94592.09;;;5.39;78.63
50394;BME280;36308;46.312;25.288;2023-12-14T00:27:06;94592.34;;;5.37;78.74
50394;BME280;36308;46.312;25.288;2023-12-14T00:29:31;94586.47;;;5.35;78.43
50394;BME280;36308;46.312;25.288;2023-12-14T00:31:57;94577.16;;;5.33;78.47
50394;BME280;36308;46.312;25.288;2023-12-14T00:34:22;94552.88;;;5.29;78.61
50394;BME280;36308;46.312;25.288;2023-12-14T00:36:48;94572.63;;;5.33;78.53
50394;BME280;36308;46.312;25.288;2023-12-14T00:39:13;94570.22;;;5.32;78.94
50394;BME280;36308;46.312;25.288;2023-12-14T00:41:39;94571.03;;;5.32;78.69
50394;BME280;36308;46.312;25.288;2023-12-14T00:44:04;94572.06;;;5.26;79.04
50394;BME280;36308;46.312;25.288;2023-12-14T00:46:30;94571.03;;;5.32;78.83
50394;BME280;36308;46.312;25.288;2023-12-14T00:48:55;94580.88;;;5.32;78.56
50394;BME280;36308;46.312;25.288;2023-12-14T00:51:21;94576.59;;;5.31;78.72
50394;BME280;36308;46.312;25.288;2023-12-14T00:53:46;94583.00;;;5.30;78.65
50394;BME280;36308;46.312;25.288;2023-12-14T00:56:12;94580.31;;;5.24;78.79
50394;BME280;36308;46.312;25.288;2023-12-14T00:58:37;94600.84;;;5.29;78.54
50394;BME280;36308;46.312;25.288;2023-12-14T01:01:03;94598.72;;;5.26;78.82
50394;BME280;36308;46.312;25.288;2023-12-14T01:03:28;94598.72;;;5.26;78.71
50394;BME280;36308;46.312;25.288;2023-12-14T01:05:54;94597.63;;;5.22;78.93
50394;BME280;36308;46.312;25.288;2023-12-14T01:08:19;94579.81;;;5.28;79.26
50394;BME280;36308;46.312;25.288;2023-12-14T01:10:45;94593.38;;;5.26;79.20
50394;BME280;36308;46.312;25.288;2023-12-14T01:13:10;94576.00;;;5.18;78.47
50394;BME280;36308;46.312;25.288;2023-12-14T01:15:36;94584.59;;;5.25;78.83
50394;BME280;36308;46.312;25.288;2023-12-14T01:18:01;94590.72;;;5.26;78.85
50394;BME280;36308;46.312;25.288;2023-12-14T01:20:27;94582.72;;;5.26;78.87
50394;BME280;36308;46.312;25.288;2023-12-14T01:22:52;94584.06;;;5.23;79.07
50394;BME280;36308;46.312;25.288;2023-12-14T01:25:18;94589.38;;;5.23;78.99
50394;BME280;36308;46.312;25.288;2023-12-14T01:27:43;94595.25;;;5.25;79.23
50394;BME280;36308;46.312;25.288;2023-12-14T01:30:09;94580.31;;;5.19;79.08
50394;BME280;36308;46.312;25.288;2023-12-14T01:32:35;94594.19;;;5.26;78.92
50394;BME280;36308;46.312;25.288;2023-12-14T01:35:00;94594.19;;;5.26;78.76
50394;BME280;36308;46.312;25.288;2023-12-14T01:37:26;94599.50;;;5.26;79.31
50394;BME280;36308;46.312;25.288;2023-12-14T01:39:51;94574.72;;;5.21;79.21
50394;BME280;36308;46.312;25.288;2023-12-14T01:42:17;94586.72;;;5.29;79.09
50394;BME280;36308;46.312;25.288;2023-12-14T01:44:42;94579.81;;;5.28;79.20
50394;BME280;36308;46.312;25.288;2023-12-14T01:47:08;94593.69;;;5.30;79.25
50394;BME280;36308;46.312;25.288;2023-12-14T01:49:33;94586.72;;;5.23;79.08
50394;BME280;36308;46.312;25.288;2023-12-14T01:51:59;94575.81;;;5.25;79.29
50394;BME280;36308;46.312;25.288;2023-12-14T01:54:24;94585.13;;;5.28;79.27
50394;BME280;36308;46.312;25.288;2023-12-14T01:56:50;94576.56;;;5.20;79.11
50394;BME280;36308;46.312;25.288;2023-12-14T01:59:15;94583.00;;;5.30;79.11
50394;BME280;36308;46.312;25.288;2023-12-14T02:01:45;94588.34;;;5.30;79.31
50394;BME280;36308;46.312;25.288;2023-12-14T02:04:12;94581.41;;;5.29;79.43
50394;BME280;36308;46.312;25.288;2023-12-14T02:06:39;94580.06;;;5.31;79.14
50394;BME280;36308;46.312;25.288;2023-12-14T02:09:05;94581.41;;;5.29;79.02
50394;BME280;36308;46.312;25.288;2023-12-14T02:11:30;94590.72;;;5.31;79.18
50394;BME280;36308;46.312;25.288;2023-12-14T02:13:56;94577.66;;;5.24;78.94
50394;BME280;36308;46.312;25.288;2023-12-14T02:16:21;94585.13;;;5.28;79.24
50394;BME280;36308;46.312;25.288;2023-12-14T02:18:47;94614.47;;;5.33;79.05
50394;BME280;36308;46.312;25.288;2023-12-14T02:21:12;94617.66;;;5.30;79.27
50394;BME280;36308;46.312;25.288;2023-12-14T02:23:45;94613.91;;;5.31;79.33
50394;BME280;36308;46.312;25.288;2023-12-14T02:26:11;94609.91;;;5.33;79.32
50394;BME280;36308;46.312;25.288;2023-12-14T02:28:37;94605.66;;;5.32;79.52
50394;BME280;36308;46.312;25.288;2023-12-14T02:31:03;94610.97;;;5.27;79.26
50394;BME280;36308;46.312;25.288;2023-12-14T02:33:28;94624.88;;;5.34;79.21
50394;BME280;36308;46.312;25.288;2023-12-14T02:35:54;94635.28;;;5.36;79.54
50394;BME280;36308;46.312;25.288;2023-12-14T02:38:19;94636.00;;;5.26;79.40
50394;BME280;36308;46.312;25.288;2023-12-14T02:40:45;94652.84;;;5.37;79.20
50394;BME280;36308;46.312;25.288;2023-12-14T02:43:10;94646.97;;;5.30;79.44
50394;BME280;36308;46.312;25.288;2023-12-14T02:45:36;94655.53;;;5.37;79.27
50394;BME280;36308;46.312;25.288;2023-12-14T02:48:01;94658.97;;;5.32;79.28
50394;BME280;36308;46.312;25.288;2023-12-14T02:50:27;94666.44;;;5.35;79.44
50394;BME280;36308;46.312;25.288;2023-12-14T02:52:52;94672.31;;;5.37;79.56
50394;BME280;36308;46.312;25.288;2023-12-14T02:55:17;94680.06;;;5.39;79.83
50394;BME280;36308;46.312;25.288;2023-12-14T02:57:43;94674.16;;;5.32;79.34
50394;BME280;36308;46.312;25.288;2023-12-14T03:00:10;94693.94;;;5.41;79.60
50394;BME280;36308;46.312;25.288;2023-12-14T03:02:36;94674.72;;;5.34;79.70
50394;BME280;36308;46.312;25.288;2023-12-14T03:05:02;94688.34;;;5.42;79.69
50394;BME280;36308;46.312;25.288;2023-12-14T03:07:27;94694.47;;;5.43;79.83
50394;BME280;36308;46.312;25.288;2023-12-14T03:09:55;94682.19;;;5.37;79.92
50394;BME280;36308;46.312;25.288;2023-12-14T03:12:21;94673.13;;;5.38;79.62
50394;BME280;36308;46.312;25.288;2023-12-14T03:14:46;94678.78;;;5.46;79.72
50394;BME280;36308;46.312;25.288;2023-12-14T03:17:12;94660.91;;;5.42;79.77
50394;BME280;36308;46.312;25.288;2023-12-14T03:19:41;94668.91;;;5.47;79.60
50394;BME280;36308;46.312;25.288;2023-12-14T03:22:07;94670.00;;;5.51;80.14
50394;BME280;36308;46.312;25.288;2023-12-14T03:24:34;94657.75;;;5.50;80.04
50394;BME280;36308;46.312;25.288;2023-12-14T03:27:01;94646.00;;;5.46;79.84
50394;BME280;36308;46.312;25.288;2023-12-14T03:29:27;94662.78;;;5.52;79.99
50394;BME280;36308;46.312;25.288;2023-12-14T03:31:53;94658.78;;;5.44;79.87
50394;BME280;36308;46.312;25.288;2023-12-14T03:34:18;94675.56;;;5.44;79.59
50394;BME280;36308;46.312;25.288;2023-12-14T03:36:44;94702.78;;;5.52;80.02
50394;BME280;36308;46.312;25.288;2023-12-14T03:39:09;94692.88;;;5.42;79.57
50394;BME280;36308;46.312;25.288;2023-12-14T03:41:35;94700.91;;;5.47;79.68
50394;BME280;36308;46.312;25.288;2023-12-14T03:44:00;94703.00;;;5.45;80.04
50394;BME280;36308;46.312;25.288;2023-12-14T03:46:26;94711.06;;;5.50;79.61
50394;BME280;36308;46.312;25.288;2023-12-14T03:48:52;94701.41;;;5.44;79.55
50394;BME280;36308;46.312;25.288;2023-12-14T03:51:21;94723.31;;;5.51;79.82
50394;BME280;36308;46.312;25.288;2023-12-14T03:53:47;94717.13;;;5.45;79.80
50394;BME280;36308;46.312;25.288;2023-12-14T03:56:12;94727.59;;;5.52;79.86
50394;BME280;36308;46.312;25.288;2023-12-14T03:58:38;94733.47;;;5.54;79.84
50394;BME280;36308;46.312;25.288;2023-12-14T04:01:04;94735.31;;;5.54;79.97
50394;BME280;36308;46.312;25.288;2023-12-14T04:03:30;94709.69;;;5.47;79.92
50394;BME280;36308;46.312;25.288;2023-12-14T04:05:55;94724.41;;;5.55;79.74
50394;BME280;36308;46.312;25.288;2023-12-14T04:08:21;94719.56;;;5.47;79.91
50394;BME280;36308;46.312;25.288;2023-12-14T04:10:47;94707.31;;;5.51;79.85
50394;BME280;36308;46.312;25.288;2023-12-14T04:13:12;94724.69;;;5.59;79.91
50394;BME280;36308;46.312;25.288;2023-12-14T04:15:38;94734.56;;;5.58;80.00
50394;BME280;36308;46.312;25.288;2023-12-14T04:18:04;94732.94;;;5.52;79.88
50394;BME280;36308;46.312;25.288;2023-12-14T04:20:31;94757.50;;;5.59;80.12
50394;BME280;36308;46.312;25.288;2023-12-14T04:22:57;94762.81;;;5.59;79.94
50394;BME280;36308;46.312;25.288;2023-12-14T04:25:22;94749.97;;;5.51;80.03
50394;BME280;36308;46.312;25.288;2023-12-14T04:27:48;94753.72;;;5.55;79.94
50394;BME280;36308;46.312;25.288;2023-12-14T04:30:13;94767.91;;;5.61;80.25
50394;BME280;36308;46.312;25.288;2023-12-14T04:32:39;94764.94;;;5.57;80.29
50394;BME280;36308;46.312;25.288;2023-12-14T04:35:05;94781.22;;;5.61;80.41
50394;BME280;36308;46.312;25.288;2023-12-14T04:37:30;94787.38;;;5.61;80.30
50394;BME280;36308;46.312;25.288;2023-12-14T04:39:57;94784.69;;;5.61;80.37
50394;BME280;36308;46.312;25.288;2023-12-14T04:42:23;94785.25;;;5.63;80.46
50394;BME280;36308;46.312;25.288;2023-12-14T04:44:48;94792.19;;;5.64;80.35
50394;BME280;36308;46.312;25.288;2023-12-14T04:47:14;94784.16;;;5.59;80.27
50394;BME280;36308;46.312;25.288;2023-12-14T04:49:40;94792.75;;;5.66;80.20
50394;BME280;36308;46.312;25.288;2023-12-14T04:52:05;94781.25;;;5.66;79.77
50394;BME280;36308;46.312;25.288;2023-12-14T04:54:31;94781.53;;;5.64;80.12
50394;BME280;36308;46.312;25.288;2023-12-14T04:56:57;94797.78;;;5.68;80.36
50394;BME280;36308;46.312;25.288;2023-12-14T04:59:22;94768.16;;;5.59;80.06
50394;BME280;36308;46.312;25.288;2023-12-14T05:01:47;94782.56;;;5.63;80.12
50394;BME280;36308;46.312;25.288;2023-12-14T05:04:13;94786.34;;;5.67;80.21
50394;BME280;36308;46.312;25.288;2023-12-14T05:06:38;94787.97;;;5.69;80.11
50394;BME280;36308;46.312;25.288;2023-12-14T05:09:04;94794.34;;;5.67;80.24
50394;BME280;36308;46.312;25.288;2023-12-14T05:11:31;94795.13;;;5.68;80.36
50394;BME280;36308;46.312;25.288;2023-12-14T05:13:57;94782.63;;;5.69;80.32
50394;BME280;36308;46.312;25.288;2023-12-14T05:16:23;94786.09;;;5.74;80.61
50394;BME280;36308;46.312;25.288;2023-12-14T05:18:53;94786.09;;;5.74;80.50
50394;BME280;36308;46.312;25.288;2023-12-14T05:21:18;94796.78;;;5.74;80.29
50394;BME280;36308;46.312;25.288;2023-12-14T05:23:44;94802.91;;;5.75;80.54
50394;BME280;36308;46.312;25.288;2023-12-14T05:26:10;94811.44;;;5.77;80.48
50394;BME280;36308;46.312;25.288;2023-12-14T05:28:35;94813.56;;;5.75;80.61
50394;BME280;36308;46.312;25.288;2023-12-14T05:31:01;94811.72;;;5.75;80.69
50394;BME280;36308;46.312;25.288;2023-12-14T05:33:26;94790.63;;;5.74;80.43
50394;BME280;36308;46.312;25.288;2023-12-14T05:35:52;94775.13;;;5.71;80.49
50394;BME280;36308;46.312;25.288;2023-12-14T05:38:17;94766.09;;;5.72;80.68
50394;BME280;36308;46.312;25.288;2023-12-14T05:40:43;94774.66;;;5.79;80.53
50394;BME280;36308;46.312;25.288;2023-12-14T05:43:10;94777.88;;;5.81;80.63
50394;BME280;36308;46.312;25.288;2023-12-14T05:45:35;94793.88;;;5.81;80.68
50394;BME280;36308;46.312;25.288;2023-12-14T05:48:01;94789.63;;;5.80;80.68
50394;BME280;36308;46.312;25.288;2023-12-14T05:50:27;94795.44;;;5.77;80.43
50394;BME280;36308;46.312;25.288;2023-12-14T05:52:53;94792.53;;;5.78;80.34
50394;BME280;36308;46.312;25.288;2023-12-14T05:55:18;94808.81;;;5.82;81.10
50394;BME280;36308;46.312;25.288;2023-12-14T05:57:47;94808.81;;;5.82;80.92
50394;BME280;36308;46.312;25.288;2023-12-14T06:00:13;94805.09;;;5.83;80.71
50394;BME280;36308;46.312;25.288;2023-12-14T06:02:39;94824.28;;;5.80;80.63
50394;BME280;36308;46.312;25.288;2023-12-14T06:05:06;94832.28;;;5.80;80.85
50394;BME280;36308;46.312;25.288;2023-12-14T06:07:32;94807.72;;;5.78;80.63
50394;BME280;36308;46.312;25.288;2023-12-14T06:09:58;94803.78;;;5.85;80.77
50394;BME280;36308;46.312;25.288;2023-12-14T06:12:23;94821.38;;;5.86;80.99
50394;BME280;36308;46.312;25.288;2023-12-14T06:14:49;94835.28;;;5.88;80.82
50394;BME280;36308;46.312;25.288;2023-12-14T06:17:15;94833.94;;;5.91;80.94
50394;BME280;36308;46.312;25.288;2023-12-14T06:19:41;94821.91;;;5.83;80.43
50394;BME280;36308;46.312;25.288;2023-12-14T06:22:06;94846.25;;;5.92;80.80
50394;BME280;36308;46.312;25.288;2023-12-14T06:24:32;94832.09;;;5.92;80.96
50394;BME280;36308;46.312;25.288;2023-12-14T06:26:57;94836.63;;;5.91;80.90
50394;BME280;36308;46.312;25.288;2023-12-14T06:29:23;94818.97;;;5.85;80.92
50394;BME280;36308;46.312;25.288;2023-12-14T06:31:48;94851.06;;;5.95;81.05
50394;BME280;36308;46.312;25.288;2023-12-14T06:34:14;94838.22;;;5.92;81.20
50394;BME280;36308;46.312;25.288;2023-12-14T06:36:44;94852.69;;;5.96;80.84
50394;BME280;36308;46.312;25.288;2023-12-14T06:39:10;94854.25;;;5.92;80.74
50394;BME280;36308;46.312;25.288;2023-12-14T06:41:36;94861.75;;;5.95;80.85
50394;BME280;36308;46.312;25.288;2023-12-14T06:44:02;94855.91;;;5.98;80.96
50394;BME280;36308;46.312;25.288;2023-12-14T06:46:28;94857.50;;;5.99;80.58
50394;BME280;36308;46.312;25.288;2023-12-14T06:48:54;94854.03;;;5.99;81.17
50394;BME280;36308;46.312;25.288;2023-12-14T06:51:20;94836.94;;;5.95;80.94
50394;BME280;36308;46.312;25.288;2023-12-14T06:53:46;94836.47;;;6.03;81.06
50394;BME280;36308;46.312;25.288;2023-12-14T06:56:12;94842.31;;;6.00;80.95
50394;BME280;36308;46.312;25.288;2023-12-14T06:58:39;94849.56;;;6.04;81.16
50394;BME280;36308;46.312;25.288;2023-12-14T07:01:05;94846.34;;;6.02;81.15
50394;BME280;36308;46.312;25.288;2023-12-14T07:03:31;94862.91;;;6.10;80.93
50394;BME280;36308;46.312;25.288;2023-12-14T07:05:57;94851.66;;;6.02;80.94
50394;BME280;36308;46.312;25.288;2023-12-14T07:08:22;94866.41;;;6.10;81.24
50394;BME280;36308;46.312;25.288;2023-12-14T07:10:48;94859.69;;;6.07;81.53
50394;BME280;36308;46.312;25.288;2023-12-14T07:13:14;94872.00;;;6.14;81.01
50394;BME280;36308;46.312;25.288;2023-12-14T07:15:39;94867.75;;;6.13;81.21
50394;BME280;36308;46.312;25.288;2023-12-14T07:18:05;94874.44;;;6.20;81.62
50394;BME280;36308;46.312;25.288;2023-12-14T07:20:30;94850.66;;;6.14;81.47
50394;BME280;36308;46.312;25.288;2023-12-14T07:22:56;94840.53;;;6.16;81.18
50394;BME280;36308;46.312;25.288;2023-12-14T07:25:21;94856.34;;;6.27;81.40
50394;BME280;36308;46.312;25.288;2023-12-14T07:27:47;94872.09;;;6.29;81.45
50394;BME280;36308;46.312;25.288;2023-12-14T07:30:13;94879.59;;;6.32;81.18
50394;BME280;36308;46.312;25.288;2023-12-14T07:32:39;94872.09;;;6.29;81.26
50394;BME280;36308;46.312;25.288;2023-12-14T07:35:05;94890.31;;;6.37;81.85
50394;BME280;36308;46.312;25.288;2023-12-14T07:37:30;94894.03;;;6.36;81.66
50394;BME280;36308;46.312;25.288;2023-12-14T07:39:56;94897.00;;;6.45;82.17
50394;BME280;36308;46.312;25.288;2023-12-14T07:42:23;94910.94;;;6.57;82.83
50394;BME280;36308;46.312;25.288;2023-12-14T07:44:48;94911.53;;;6.64;82.55
50394;BME280;36308;46.312;25.288;2023-12-14T07:47:14;94915.00;;;6.70;83.11
50394;BME280;36308;46.312;25.288;2023-12-14T07:49:39;94915.06;;;6.80;83.48
50394;BME280;36308;46.312;25.288;2023-12-14T07:52:05;94922.06;;;6.92;83.16
50394;BME280;36308;46.312;25.288;2023-12-14T07:54:31;94921.53;;;6.95;83.70
50394;BME280;36308;46.312;25.288;2023-12-14T07:56:56;94929.59;;;7.05;83.85
50394;BME280;36308;46.312;25.288;2023-12-14T07:59:22;94933.91;;;7.16;83.81
50394;BME280;36308;46.312;25.288;2023-12-14T08:01:48;94923.75;;;7.23;83.37
50394;BME280;36308;46.312;25.288;2023-12-14T08:04:14;94930.19;;;7.27;83.13
50394;BME280;36308;46.312;25.288;2023-12-14T08:06:40;94929.13;;;7.34;82.80
50394;BME280;36308;46.312;25.288;2023-12-14T08:09:05;94946.00;;;7.44;82.75
50394;BME280;36308;46.312;25.288;2023-12-14T08:11:32;94949.50;;;7.50;82.93
50394;BME280;36308;46.312;25.288;2023-12-14T08:13:57;94947.38;;;7.52;82.62
50394;BME280;36308;46.312;25.288;2023-12-14T08:16:23;94964.50;;;7.66;82.48
50394;BME280;36308;46.312;25.288;2023-12-14T08:18:50;94960.75;;;7.67;82.54
50394;BME280;36308;46.312;25.288;2023-12-14T08:21:18;94969.88;;;7.77;82.30
50394;BME280;36308;46.312;25.288;2023-12-14T08:23:44;94976.03;;;7.87;82.32
50394;BME280;36308;46.312;25.288;2023-12-14T08:26:10;94968.00;;;7.93;82.07
50394;BME280;36308;46.312;25.288;2023-12-14T08:28:41;94977.94;;;7.97;81.60
50394;BME280;36308;46.312;25.288;2023-12-14T08:31:06;94968.81;;;7.98;81.90
50394;BME280;36308;46.312;25.288;2023-12-14T08:33:33;94974.72;;;8.05;81.04
50394;BME280;36308;46.312;25.288;2023-12-14T08:35:58;94983.00;;;8.09;81.33
50394;BME280;36308;46.312;25.288;2023-12-14T08:38:24;94967.22;;;8.02;80.70
50394;BME280;36308;46.312;25.288;2023-12-14T08:40:50;94979.53;;;8.14;81.17
50394;BME280;36308;46.312;25.288;2023-12-14T08:43:16;94970.97;;;8.12;81.42
50394;BME280;36308;46.312;25.288;2023-12-14T08:45:42;94984.34;;;8.17;81.38
50394;BME280;36308;46.312;25.288;2023-12-14T08:48:07;94982.22;;;8.19;80.21
50394;BME280;36308;46.312;25.288;2023-12-14T08:50:33;94981.66;;;8.17;80.71
50394;BME280;36308;46.312;25.288;2023-12-14T08:52:58;94984.38;;;8.22;80.32
50394;BME280;36308;46.312;25.288;2023-12-14T08:55:25;94986.22;;;8.21;80.30
50394;BME280;36308;46.312;25.288;2023-12-14T08:57:50;94981.41;;;8.18;79.91
50394;BME280;36308;46.312;25.288;2023-12-14T09:00:17;94987.03;;;8.27;79.77
50394;BME280;36308;46.312;25.288;2023-12-14T09:02:45;94977.41;;;8.26;79.75
50394;BME280;36308;46.312;25.288;2023-12-14T09:05:14;94976.84;;;8.29;79.42
50394;BME280;36308;46.312;25.288;2023-12-14T09:07:41;94986.22;;;8.32;79.10
50394;BME280;36308;46.312;25.288;2023-12-14T09:10:06;94982.75;;;8.26;79.29
50394;BME280;36308;46.312;25.288;2023-12-14T09:12:33;94986.22;;;8.32;79.58
50394;BME280;36308;46.312;25.288;2023-12-14T09:14:59;94981.13;;;8.35;79.26
50394;BME280;36308;46.312;25.288;2023-12-14T09:17:26;94986.50;;;8.35;78.95
50394;BME280;36308;46.312;25.288;2023-12-14T09:19:52;94987.81;;;8.38;78.28
50394;BME280;36308;46.312;25.288;2023-12-14T09:22:17;94981.41;;;8.34;78.61
50394;BME280;36308;46.312;25.288;2023-12-14T09:24:43;94992.91;;;8.39;79.00
50394;BME280;36308;46.312;25.288;2023-12-14T09:27:08;95001.50;;;8.41;78.64
50394;BME280;36308;46.312;25.288;2023-12-14T09:29:34;95000.44;;;8.42;78.05
50394;BME280;36308;46.312;25.288;2023-12-14T09:31:59;94990.25;;;8.44;78.12
50394;BME280;36308;46.312;25.288;2023-12-14T09:34:25;94987.56;;;8.44;78.19
50394;BME280;36308;46.312;25.288;2023-12-14T09:36:50;94996.66;;;8.48;78.54
50394;BME280;36308;46.312;25.288;2023-12-14T09:39:16;95005.25;;;8.50;78.37
50394;BME280;36308;46.312;25.288;2023-12-14T09:41:44;94998.81;;;8.52;78.27
50394;BME280;36308;46.312;25.288;2023-12-14T09:44:11;94994.53;;;8.50;77.81
50394;BME280;36308;46.312;25.288;2023-12-14T09:46:37;95019.44;;;8.56;77.99
50394;BME280;36308;46.312;25.288;2023-12-14T09:49:04;95017.56;;;8.57;78.15
50394;BME280;36308;46.312;25.288;2023-12-14T09:51:30;95017.31;;;8.58;78.23
50394;BME280;36308;46.312;25.288;2023-12-14T09:53:56;95012.75;;;8.59;77.69
50394;BME280;36308;46.312;25.288;2023-12-14T09:56:24;94987.81;;;8.58;77.57
50394;BME280;36308;46.312;25.288;2023-12-14T09:58:50;94986.25;;;8.57;77.46
50394;BME280;36308;46.312;25.288;2023-12-14T10:01:26;95001.22;;;8.58;77.58
50394;BME280;36308;46.312;25.288;2023-12-14T10:06:33;95025.59;;;8.57;77.17
50394;BME280;36308;46.312;25.288;2023-12-14T10:08:59;95030.16;;;8.56;77.04
50394;BME280;36308;46.312;25.288;2023-12-14T10:11:24;95035.78;;;8.55;77.22
50394;BME280;36308;46.312;25.288;2023-12-14T10:13:50;95056.16;;;8.56;76.49
50394;BME280;36308;46.312;25.288;2023-12-14T10:16:32;95061.25;;;8.57;77.65
50394;BME280;36308;46.312;25.288;2023-12-14T10:18:59;95046.50;;;8.55;77.23
50394;BME280;36308;46.312;25.288;2023-12-14T10:21:28;95041.16;;;8.60;76.61
50394;BME280;36308;46.312;25.288;2023-12-14T10:23:57;95028.28;;;8.52;76.74
50394;BME280;36308;46.312;25.288;2023-12-14T10:26:26;95047.03;;;8.57;77.15
50394;BME280;36308;46.312;25.288;2023-12-14T10:28:52;95042.75;;;8.56;76.65
50394;BME280;36308;46.312;25.288;2023-12-14T10:31:18;95041.69;;;8.52;76.73
50394;BME280;36308;46.312;25.288;2023-12-14T10:33:47;95040.59;;;8.53;76.65
50394;BME280;36308;46.312;25.288;2023-12-14T10:36:14;95033.91;;;8.50;76.25
50394;BME280;36308;46.312;25.288;2023-12-14T10:38:43;95025.09;;;8.49;76.22
50394;BME280;36308;46.312;25.288;2023-12-14T10:41:11;95030.97;;;8.46;76.30
50394;BME280;36308;46.312;25.288;2023-12-14T10:43:39;95034.72;;;8.45;76.07
50394;BME280;36308;46.312;25.288;2023-12-14T10:46:07;95026.16;;;8.43;75.75
50394;BME280;36308;46.312;25.288;2023-12-14T10:48:35;95022.94;;;8.41;76.54
50394;BME280;36308;46.312;25.288;2023-12-14T10:51:06;95029.31;;;8.40;76.35
50394;BME280;36308;46.312;25.288;2023-12-14T10:53:52;95027.19;;;8.37;75.89
50394;BME280;36308;46.312;25.288;2023-12-14T10:56:19;95027.19;;;8.37;75.92
50394;BME280;36308;46.312;25.288;2023-12-14T10:58:57;95031.22;;;8.35;76.06
50394;BME280;36308;46.312;25.288;2023-12-14T11:01:25;95027.72;;;8.34;76.30
50394;BME280;36308;46.312;25.288;2023-12-14T11:03:55;95042.19;;;8.33;76.25
50394;BME280;36308;46.312;25.288;2023-12-14T11:08:54;95042.75;;;8.30;76.10
50394;BME280;36308;46.312;25.288;2023-12-14T11:11:20;95044.88;;;8.28;75.84
50394;BME280;36308;46.312;25.288;2023-12-14T11:13:52;95069.75;;;8.23;75.87
50394;BME280;36308;46.312;25.288;2023-12-14T11:16:22;95063.59;;;8.13;75.88
50394;BME280;36308;46.312;25.288;2023-12-14T11:18:48;95069.50;;;8.20;75.75
50394;BME280;36308;46.312;25.288;2023-12-14T11:21:34;95061.47;;;8.09;75.87
50394;BME280;36308;46.312;25.288;2023-12-14T11:24:01;95071.63;;;8.13;76.11
50394;BME280;36308;46.312;25.288;2023-12-14T11:26:26;95081.78;;;8.10;75.87
50394;BME280;36308;46.312;25.288;2023-12-14T11:28:54;95087.69;;;8.07;75.45
50394;BME280;36308;46.312;25.288;2023-12-14T11:31:19;95093.56;;;8.04;75.89
50394;BME280;36308;46.312;25.288;2023-12-14T11:33:46;95096.25;;;7.99;75.27
50394;BME280;36308;46.312;25.288;2023-12-14T11:36:13;95119.28;;;8.05;75.36
50394;BME280;36308;46.312;25.288;2023-12-14T11:38:39;95118.69;;;7.98;75.30
50394;BME280;36308;46.312;25.288;2023-12-14T11:41:05;95132.63;;;8.00;75.39
50394;BME280;36308;46.312;25.288;2023-12-14T11:43:39;95119.75;;;7.87;74.62
50394;BME280;36308;46.312;25.288;2023-12-14T11:46:05;95116.53;;;7.90;75.47
50394;BME280;36308;46.312;25.288;2023-12-14T11:48:30;95133.94;;;7.93;75.68
50394;BME280;36308;46.312;25.288;2023-12-14T11:50:55;95134.75;;;7.93;75.21
50394;BME280;36308;46.312;25.288;2023-12-14T11:53:21;95144.94;;;7.91;75.32
50394;BME280;36308;46.312;25.288;2023-12-14T11:55:47;95144.94;;;7.91;75.23
50394;BME280;36308;46.312;25.288;2023-12-14T11:58:13;95147.59;;;7.91;75.85
50394;BME280;36308;46.312;25.288;2023-12-14T12:00:42;95146.78;;;7.90;75.31
50394;BME280;36308;46.312;25.288;2023-12-14T12:03:14;95145.97;;;7.90;75.76
50394;BME280;36308;46.312;25.288;2023-12-14T12:05:45;95139.53;;;7.86;75.27
50394;BME280;36308;46.312;25.288;2023-12-14T12:08:12;95147.59;;;7.91;75.46
50394;BME280;36308;46.312;25.288;2023-12-14T12:10:40;95140.06;;;7.88;75.07
50394;BME280;36308;46.312;25.288;2023-12-14T12:13:16;95151.31;;;7.90;75.29
50394;BME280;36308;46.312;25.288;2023-12-14T12:15:43;95153.75;;;7.92;75.73
50394;BME280;36308;46.312;25.288;2023-12-14T12:18:10;95158.56;;;7.95;75.56
50394;BME280;36308;46.312;25.288;2023-12-14T12:20:36;95167.13;;;7.97;75.36
50394;BME280;36308;46.312;25.288;2023-12-14T12:23:02;95161.00;;;7.96;75.54
50394;BME280;36308;46.312;25.288;2023-12-14T12:25:29;95160.19;;;7.96;75.19
50394;BME280;36308;46.312;25.288;2023-12-14T12:27:54;95168.47;;;7.94;75.05
50394;BME280;36308;46.312;25.288;2023-12-14T12:30:23;95169.00;;;7.91;74.67
50394;BME280;36308;46.312;25.288;2023-12-14T12:32:49;95155.88;;;7.89;74.87
50394;BME280;36308;46.312;25.288;2023-12-14T12:35:22;95158.00;;;7.87;75.01
50394;BME280;36308;46.312;25.288;2023-12-14T12:37:48;95162.56;;;7.87;75.24
50394;BME280;36308;46.312;25.288;2023-12-14T12:40:22;95154.00;;;7.85;74.95
50394;BME280;36308;46.312;25.288;2023-12-14T12:42:49;95152.38;;;7.84;74.90
50394;BME280;36308;46.312;25.288;2023-12-14T12:45:15;95145.44;;;7.83;74.66
50394;BME280;36308;46.312;25.288;2023-12-14T12:47:44;95155.59;;;7.81;74.99
50394;BME280;36308;46.312;25.288;2023-12-14T12:50:10;95153.41;;;7.78;74.55
50394;BME280;36308;46.312;25.288;2023-12-14T12:52:35;95166.25;;;7.76;74.30
50394;BME280;36308;46.312;25.288;2023-12-14T12:55:02;95166.78;;;7.73;75.06
50394;BME280;36308;46.312;25.288;2023-12-14T12:57:29;95171.03;;;7.68;74.56
50394;BME280;36308;46.312;25.288;2023-12-14T12:59:55;95183.34;;;7.69;74.61